Aviation Digital Data Service (ADDS)

Output produced by TAFs form (0017 UTC 07 July 2015)
found at http://aviationweather.gov/adds/tafs/
 
KDRO 062351Z 0700/0724 VRB10G20KT P6SM VCSH FEW070 OVC090 
     TEMPO 0700/0704 VRB15G30KT 5SM TSRA SCT040 BKN060CB 
     FM070400 05005KT P6SM VCSH SCT060 BKN150 
     FM071800 31008G18KT P6SM -TSRA BKN050CB OVC120